| time (UTC) | temp C | wind direction | speed KPH | gust KPH | rain 1hr cm | rain 24hr cm | rain mn cm | humidity % | barometer mb |
| 20260505173705 | 13 | 80 | 3.2 | 4.8 | 0.00 | 0.00 | 0.00 | 63 | 1009.9 |
| 20260505173205 | 13 | 72 | 3.2 | 8.0 | 0.00 | 0.00 | 0.00 | 62 | 1009.9 |
| 20260505172705 | 13 | 80 | 4.8 | 4.8 | 0.00 | 0.00 | 0.00 | 62 | 1009.9 |
| 20260505172205 | 13 | 59 | 4.8 | 8.0 | 0.00 | 0.00 | 0.00 | 61 | 1009.9 |
| 20260505171704 | 13 | 100 | 4.8 | 11.3 | 0.00 | 0.00 | 0.00 | 61 | 1009.9 |
| 20260505171205 | 13 | 61 | 4.8 | 9.7 | 0.00 | 0.00 | 0.00 | 61 | 1010.0 |
| 20260505170205 | 13 | 81 | 6.4 | 16.1 | 0.00 | 0.00 | 0.00 | 58 | 1009.9 |
| 20260505165705 | 13 | 77 | 6.4 | 14.5 | 0.00 | 0.00 | 0.00 | 59 | 1009.9 |
| 20260505165205 | 13 | 77 | 4.8 | 14.5 | 0.00 | 0.00 | 0.00 | 58 | 1009.9 |
| 20260505164706 | 13 | 78 | 9.7 | 14.5 | 0.00 | 0.00 | 0.00 | 57 | 1009.9 |
| 20260505164205 | 13 | 70 | 8.0 | 12.9 | 0.00 | 0.00 | 0.00 | 56 | 1009.9 |
| 20260505163704 | 13 | 97 | 8.0 | 16.1 | 0.00 | 0.00 | 0.00 | 57 | 1009.9 |
| 20260505163205 | 14 | 81 | 9.7 | 19.3 | 0.00 | 0.00 | 0.00 | 56 | 1009.9 |
| 20260505162705 | 14 | 89 | 9.7 | 16.1 | 0.00 | 0.00 | 0.00 | 57 | 1009.9 |
| 20260505162205 | 14 | 93 | 8.0 | 20.9 | 0.00 | 0.00 | 0.00 | 56 | 1010.0 |
| 20260505161705 | 14 | 61 | 9.7 | 19.3 | 0.00 | 0.00 | 0.00 | 57 | 1009.9 |
| 20260505161205 | 14 | 88 | 9.7 | 19.3 | 0.00 | 0.00 | 0.00 | 56 | 1010.0 |
| 20260505160705 | 14 | 36 | 8.0 | 19.3 | 0.00 | 0.00 | 0.00 | 56 | 1009.9 |
| 20260505153205 | 14 | 56 | 6.4 | 16.1 | 0.00 | 0.00 | 0.00 | 50 | 1010.1 |
| 20260505152705 | 14 | 62 | 8.0 | 16.1 | 0.00 | 0.00 | 0.00 | 50 | 1010.2 |
| 20260505152205 | 15 | 47 | 8.0 | 19.3 | 0.00 | 0.00 | 0.00 | 51 | 1010.2 |
| 20260505151205 | 15 | 43 | 9.7 | 16.1 | 0.00 | 0.00 | 0.00 | 50 | 1010.1 |
| 20260505150205 | 15 | 59 | 9.7 | 14.5 | 0.00 | 0.00 | 0.00 | 50 | 1010.1 |
| 20260505124705 | 15 | 359 | 4.8 | 8.0 | 0.00 | 0.00 | 0.00 | 60 | 1010.5 |
| 20260505124205 | 15 | 347 | 4.8 | 12.9 | 0.00 | 0.00 | 0.00 | 59 | 1010.6 |
| 20260505123705 | 15 | 79 | 4.8 | 12.9 | 0.00 | 0.00 | 0.00 | 60 | 1010.7 |
| 20260505123205 | 15 | 7 | 3.2 | 14.5 | 0.00 | 0.00 | 0.00 | 59 | 1010.7 |
| 20260505122705 | 15 | 2 | 6.4 | 12.9 | 0.00 | 0.00 | 0.00 | 59 | 1010.7 |
| 20260505122205 | 15 | 338 | 4.8 | 4.8 | 0.00 | 0.00 | 0.00 | 58 | 1010.7 |
| 20260505121705 | 15 | 47 | 8.0 | 14.5 | 0.00 | 0.00 | 0.00 | 61 | 1010.8 |
| 20260505121205 | 14 | 38 | 6.4 | 14.5 | 0.00 | 0.00 | 0.00 | 62 | 1010.8 |
| 20260505120205 | 15 | 84 | 9.7 | 14.5 | 0.00 | 0.00 | 0.00 | 60 | 1010.8 |
| 20260505115705 | 15 | 64 | 4.8 | 9.7 | 0.00 | 0.00 | 0.00 | 60 | 1010.8 |
| 20260505114705 | 15 | 332 | 3.2 | 16.1 | 0.00 | 0.00 | 0.00 | 63 | 1010.7 |
| 20260505114205 | 14 | 19 | 3.2 | 8.0 | 0.00 | 0.00 | 0.00 | 60 | 1010.8 |
| 20260505113204 | 14 | 9 | 4.8 | 8.0 | 0.00 | 0.00 | 0.00 | 62 | 1010.8 |
| 20260505112205 | 13 | 70 | 3.2 | 8.0 | 0.00 | 0.00 | 0.00 | 62 | 1010.9 |
| 20260505111705 | 13 | 66 | 6.4 | 12.9 | 0.00 | 0.00 | 0.00 | 62 | 1010.9 |
| 20260505110705 | 14 | 268 | 3.2 | 8.0 | 0.00 | 0.00 | 0.00 | 62 | 1011.0 |
| 20260505110205 | 14 | 2 | 8.0 | 14.5 | 0.00 | 0.00 | 0.00 | 61 | 1011.0 |
| 20260505101705 | 13 | 286 | 1.6 | 4.8 | 0.00 | 0.00 | 0.00 | 64 | 1011.2 |
| 20260505101205 | 13 | 348 | 8.0 | 12.9 | 0.00 | 0.00 | 0.00 | 65 | 1011.3 |
| 20260505100706 | 13 | 310 | 0.0 | 8.0 | 0.00 | 0.00 | 0.00 | 69 | 1011.3 |
| 20260505100205 | 12 | 333 | 3.2 | 8.0 | 0.00 | 0.00 | 0.00 | 68 | 1011.4 |
| 20260505095705 | 12 | 335 | 3.2 | 8.0 | 0.00 | 0.00 | 0.00 | 67 | 1011.5 |
| 20260505094704 | 13 | 343 | 8.0 | 16.1 | 0.00 | 0.00 | 0.00 | 65 | 1011.6 |
| 20260505093705 | 13 | 27 | 8.0 | 14.5 | 0.00 | 0.00 | 0.00 | 68 | 1011.5 |
| 20260505093205 | 12 | 330 | 4.8 | 12.9 | 0.00 | 0.00 | 0.00 | 67 | 1011.5 |
| 20260505092705 | 13 | 333 | 4.8 | 11.3 | 0.00 | 0.00 | 0.00 | 67 | 1011.5 |
| 20260505092205 | 13 | 339 | 6.4 | 14.5 | 0.00 | 0.00 | 0.00 | 67 | 1011.6 |
| 20260505091705 | 12 | 29 | 3.2 | 9.7 | 0.00 | 0.00 | 0.00 | 70 | 1011.5 |
| 20260505091205 | 12 | 347 | 3.2 | 9.7 | 0.00 | 0.00 | 0.00 | 69 | 1011.6 |
| 20260505090706 | 12 | 357 | 3.2 | 8.0 | 0.00 | 0.00 | 0.00 | 68 | 1011.6 |
| 20260505090205 | 12 | 348 | 3.2 | 8.0 | 0.00 | 0.00 | 0.00 | 69 | 1011.6 |
| 20260505085705 | 13 | 336 | 8.0 | 16.1 | 0.00 | 0.00 | 0.00 | 67 | 1011.7 |
| 20260505085204 | 13 | 333 | 6.4 | 14.5 | 0.00 | 0.00 | 0.00 | 68 | 1011.6 |
| 20260505084205 | 13 | 324 | 4.8 | 12.9 | 0.00 | 0.00 | 0.00 | 68 | 1011.6 |
| 20260505083705 | 13 | 18 | 4.8 | 16.1 | 0.00 | 0.00 | 0.00 | 68 | 1011.6 |
| 20260505083205 | 13 | 346 | 4.8 | 14.5 | 0.00 | 0.00 | 0.00 | 68 | 1011.6 |
| 20260505082205 | 13 | 322 | 6.4 | 12.9 | 0.00 | 0.00 | 0.00 | 72 | 1011.7 |
| 20260505081704 | 12 | 334 | 3.2 | 9.7 | 0.00 | 0.00 | 0.00 | 72 | 1011.7 |
| 20260505080705 | 11 | 350 | 4.8 | 14.5 | 0.00 | 0.00 | 0.00 | 74 | 1011.7 |
| 20260505080205 | 11 | 41 | 4.8 | 14.5 | 0.00 | 0.00 | 0.00 | 74 | 1011.7 |
| 20260505075705 | 11 | 337 | 4.8 | 14.5 | 0.00 | 0.00 | 0.00 | 77 | 1011.7 |
| 20260505075205 | 11 | 338 | 4.8 | 14.5 | 0.00 | 0.00 | 0.00 | 74 | 1011.8 |
| 20260505074705 | 11 | 346 | 4.8 | 14.5 | 0.00 | 0.00 | 0.00 | 76 | 1011.7 |
| 20260505074205 | 11 | 333 | 6.4 | 16.1 | 0.00 | 0.00 | 0.00 | 76 | 1011.7 |
| 20260505073705 | 11 | 346 | 3.2 | 12.9 | 0.00 | 0.00 | 0.00 | 78 | 1011.8 |
| 20260505072205 | 11 | 16 | 8.0 | 14.5 | 0.00 | 0.00 | 0.00 | 77 | 1011.7 |
| 20260505071705 | 11 | 3 | 4.8 | 9.7 | 0.00 | 0.00 | 0.00 | 78 | 1011.8 |
| 20260505071204 | 11 | 10 | 8.0 | 12.9 | 0.00 | 0.00 | 0.00 | 79 | 1011.8 |
| 20260505070705 | 10 | 13 | 3.2 | 11.3 | 0.00 | 0.00 | 0.00 | 80 | 1011.9 |
| 20260505070204 | 10 | 29 | 4.8 | 9.7 | 0.00 | 0.00 | 0.00 | 81 | 1011.9 |
| 20260505065705 | 10 | 27 | 6.4 | 12.9 | 0.00 | 0.00 | 0.00 | 81 | 1011.8 |
| 20260505065204 | 10 | 31 | 4.8 | 9.7 | 0.00 | 0.00 | 0.00 | 82 | 1011.8 |
| 20260505064705 | 10 | 8 | 1.6 | 8.0 | 0.00 | 0.00 | 0.00 | 85 | 1011.9 |
| 20260505064205 | 10 | 329 | 3.2 | 9.7 | 0.00 | 0.00 | 0.00 | 85 | 1011.9 |
| 20260505063206 | 9 | 21 | 6.4 | 14.5 | 0.00 | 0.00 | 0.00 | 86 | 1012.0 |
| 20260505062705 | 9 | 346 | 3.2 | 12.9 | 0.00 | 0.00 | 0.00 | 87 | 1011.9 |
| 20260505062205 | 8 | 330 | 4.8 | 12.9 | 0.00 | 0.00 | 0.00 | 88 | 1012.0 |
| 20260505061705 | 8 | 335 | 4.8 | 12.9 | 0.00 | 0.00 | 0.00 | 88 | 1012.0 |
| 20260505061205 | 8 | 39 | 3.2 | 8.0 | 0.00 | 0.00 | 0.00 | 90 | 1012.0 |
| 20260505060705 | 8 | 10 | 1.6 | 4.8 | 0.00 | 0.00 | 0.00 | 91 | 1011.9 |
| 20260505060204 | 7 | 348 | 4.8 | 9.7 | 0.00 | 0.00 | 0.00 | 91 | 1011.9 |
| 20260505055205 | 7 | 11 | 3.2 | 4.8 | 0.00 | 0.00 | 0.00 | 93 | 1011.9 |
| 20260505054705 | 7 | 14 | 4.8 | 8.0 | 0.00 | 0.00 | 0.00 | 94 | 1011.9 |
| 20260505054205 | 7 | 11 | 3.2 | 4.8 | 0.00 | 0.00 | 0.00 | 94 | 1011.9 |
| 20260505053704 | 6 | 348 | 3.2 | 8.0 | 0.00 | 0.00 | 0.00 | 95 | 1011.9 |
| 20260505052705 | 6 | 0 | 3.2 | 4.8 | 0.00 | 0.00 | 0.00 | 96 | 1011.9 |
| 20260505052205 | 6 | 16 | 3.2 | 8.0 | 0.00 | 0.00 | 0.00 | 96 | 1011.9 |
| 20260505051705 | 6 | 311 | 1.6 | 4.8 | 0.00 | 0.00 | 0.00 | 96 | 1011.8 |
| 20260505051205 | 6 | 304 | 1.6 | 3.2 | 0.00 | 0.00 | 0.00 | 96 | 1011.8 |
| 20260505050705 | 5 | 303 | 0.0 | 3.2 | 0.00 | 0.00 | 0.00 | 96 | 1011.8 |
| 20260505050205 | 5 | 303 | 1.6 | 3.2 | 0.00 | 0.00 | 0.00 | 97 | 1011.7 |
| 20260505041705 | 2 | 302 | 1.6 | 1.6 | 0.00 | 0.00 | 0.00 | 95 | 1011.8 |
| 20260505041205 | 2 | 302 | 1.6 | 3.2 | 0.00 | 0.00 | 0.00 | 95 | 1011.7 |
| 20260505040704 | 2 | 302 | 0.0 | 0.0 | 0.00 | 0.00 | 0.00 | 95 | 1011.7 |
| 20260505040205 | 2 | 302 | 0.0 | 0.0 | 0.00 | 0.00 | 0.00 | 95 | 1011.8 |
| 20260505035705 | 2 | 302 | 0.0 | 0.0 | 0.00 | 0.00 | 0.00 | 94 | 1011.7 |
| 20260505035205 | 2 | 302 | 0.0 | 0.0 | 0.00 | 0.00 | 0.00 | 94 | 1011.7 |
| 20260505034705 | 2 | 302 | 0.0 | 1.6 | 0.00 | 0.00 | 0.00 | 95 | 1011.7 |
| 20260505033705 | 2 | 302 | 0.0 | 0.0 | 0.00 | 0.00 | 0.00 | 94 | 1011.7 |
| 20260505033205 | 2 | 302 | 0.0 | 0.0 | 0.00 | 0.00 | 0.00 | 94 | 1011.7 |
| 20260505032705 | 2 | 302 | 0.0 | 1.6 | 0.00 | 0.00 | 0.00 | 94 | 1011.7 |
| 20260505032205 | 3 | 302 | 0.0 | 0.0 | 0.00 | 0.00 | 0.00 | 95 | 1011.7 |
| 20260505031705 | 3 | 302 | 0.0 | 1.6 | 0.00 | 0.00 | 0.00 | 95 | 1011.7 |
| 20260505031205 | 3 | 302 | 0.0 | 3.2 | 0.00 | 0.00 | 0.00 | 95 | 1011.7 |
| 20260505030704 | 3 | 302 | 0.0 | 1.6 | 0.00 | 0.00 | 0.00 | 95 | 1011.7 |
| 20260505030205 | 3 | 302 | 0.0 | 1.6 | 0.00 | 0.00 | 0.00 | 94 | 1011.7 |
| 20260505025705 | 3 | 302 | 0.0 | 3.2 | 0.00 | 0.00 | 0.00 | 94 | 1011.8 |
| 20260505025205 | 3 | 302 | 0.0 | 3.2 | 0.00 | 0.00 | 0.00 | 94 | 1011.8 |
| 20260505024705 | 3 | 302 | 0.0 | 1.6 | 0.00 | 0.00 | 0.00 | 94 | 1011.8 |
| 20260505024205 | 3 | 302 | 0.0 | 1.6 | 0.00 | 0.00 | 0.00 | 95 | 1011.8 |
| 20260505023705 | 3 | 302 | 0.0 | 3.2 | 0.00 | 0.00 | 0.00 | 95 | 1011.8 |
| 20260505023205 | 3 | 301 | 0.0 | 0.0 | 0.00 | 0.00 | 0.00 | 95 | 1011.8 |
| 20260505022705 | 3 | 301 | 0.0 | 3.2 | 0.00 | 0.00 | 0.00 | 94 | 1011.8 |
| 20260505022205 | 3 | 265 | 0.0 | 4.8 | 0.00 | 0.00 | 0.00 | 94 | 1011.8 |
| 20260505021205 | 3 | 262 | 0.0 | 0.0 | 0.00 | 0.00 | 0.00 | 94 | 1011.8 |
| 20260505020704 | 3 | 255 | 0.0 | 0.0 | 0.00 | 0.00 | 0.00 | 94 | 1011.9 |
| 20260505020205 | 3 | 255 | 0.0 | 0.0 | 0.00 | 0.00 | 0.00 | 94 | 1012.0 |
| 20260505015705 | 3 | 255 | 0.0 | 0.0 | 0.00 | 0.00 | 0.00 | 94 | 1012.0 |
| 20260505015205 | 3 | 255 | 0.0 | 0.0 | 0.00 | 0.00 | 0.00 | 94 | 1012.1 |
| 20260505014705 | 3 | 255 | 0.0 | 0.0 | 0.00 | 0.00 | 0.00 | 94 | 1012.1 |
| 20260505013704 | 3 | 255 | 0.0 | 0.0 | 0.00 | 0.00 | 0.00 | 94 | 1012.1 |
| 20260505013205 | 3 | 255 | 0.0 | 0.0 | 0.00 | 0.00 | 0.00 | 94 | 1012.2 |
| 20260505012705 | 3 | 255 | 0.0 | 0.0 | 0.00 | 0.00 | 0.00 | 94 | 1012.2 |
| 20260505012205 | 3 | 255 | 0.0 | 0.0 | 0.00 | 0.00 | 0.00 | 94 | 1012.2 |
| 20260505011704 | 3 | 255 | 0.0 | 0.0 | 0.00 | 0.00 | 0.00 | 94 | 1012.3 |
| 20260505011205 | 3 | 255 | 0.0 | 0.0 | 0.00 | 0.00 | 0.00 | 94 | 1012.3 |
| 20260505010705 | 3 | 255 | 0.0 | 0.0 | 0.00 | 0.00 | 0.00 | 94 | 1012.3 |
| 20260505005205 | 3 | 255 | 0.0 | 0.0 | 0.00 | 0.00 | 0.00 | 94 | 1012.4 |
| 20260505004705 | 3 | 255 | 0.0 | 0.0 | 0.00 | 0.00 | 0.00 | 94 | 1012.3 |
| 20260505004205 | 3 | 255 | 0.0 | 0.0 | 0.00 | 0.00 | 0.00 | 93 | 1012.3 |
| 20260505003705 | 3 | 255 | 0.0 | 0.0 | 0.00 | 0.00 | 0.00 | 93 | 1012.3 |
| 20260505003205 | 3 | 255 | 0.0 | 0.0 | 0.00 | 0.00 | 0.00 | 94 | 1012.4 |
| 20260505002705 | 3 | 255 | 0.0 | 0.0 | 0.00 | 0.00 | 0.00 | 93 | 1012.4 |
| 20260505002205 | 3 | 255 | 0.0 | 0.0 | 0.00 | 0.00 | 0.00 | 93 | 1012.4 |
| 20260505001205 | 3 | 254 | 0.0 | 0.0 | 0.00 | 0.00 | 0.00 | 93 | 1012.5 |
| 20260505000705 | 4 | 254 | 0.0 | 0.0 | 0.00 | 0.00 | 0.00 | 93 | 1012.5 |
| 20260504235205 | 4 | 254 | 0.0 | 0.0 | 0.00 | 0.00 | 0.00 | 93 | 1012.5 |
| 20260504234705 | 4 | 254 | 0.0 | 0.0 | 0.00 | 0.00 | 0.00 | 93 | 1012.5 |
| 20260504234205 | 4 | 254 | 0.0 | 0.0 | 0.00 | 0.00 | 0.00 | 93 | 1012.6 |
| 20260504233205 | 4 | 254 | 0.0 | 0.0 | 0.00 | 0.00 | 0.00 | 93 | 1012.6 |
| 20260504232704 | 5 | 254 | 0.0 | 0.0 | 0.00 | 0.00 | 0.00 | 93 | 1012.6 |
| 20260504232205 | 5 | 254 | 0.0 | 0.0 | 0.00 | 0.00 | 0.00 | 93 | 1012.6 |
| 20260504231205 | 4 | 254 | 0.0 | 0.0 | 0.00 | 0.00 | 0.00 | 92 | 1012.6 |
| 20260504230705 | 5 | 254 | 0.0 | 0.0 | 0.00 | 0.00 | 0.00 | 92 | 1012.6 |
| 20260504230205 | 5 | 254 | 0.0 | 0.0 | 0.00 | 0.00 | 0.00 | 92 | 1012.6 |
| 20260504225704 | 5 | 254 | 1.6 | 3.2 | 0.00 | 0.00 | 0.00 | 92 | 1012.7 |
| 20260504225205 | 5 | 254 | 0.0 | 1.6 | 0.00 | 0.00 | 0.00 | 92 | 1012.7 |
| 20260504224704 | 5 | 254 | 0.0 | 3.2 | 0.00 | 0.00 | 0.00 | 92 | 1012.7 |
| 20260504223705 | 5 | 254 | 0.0 | 3.2 | 0.00 | 0.00 | 0.00 | 92 | 1012.7 |
| 20260504223205 | 5 | 254 | 0.0 | 1.6 | 0.00 | 0.00 | 0.00 | 92 | 1012.6 |
| 20260504222705 | 5 | 254 | 1.6 | 3.2 | 0.00 | 0.00 | 0.00 | 91 | 1012.7 |
| 20260504222205 | 5 | 254 | 1.6 | 3.2 | 0.00 | 0.00 | 0.00 | 92 | 1012.7 |
| 20260504221704 | 5 | 254 | 0.0 | 1.6 | 0.00 | 0.00 | 0.00 | 91 | 1012.7 |
| 20260504220706 | 5 | 254 | 1.6 | 1.6 | 0.00 | 0.00 | 0.00 | 91 | 1012.7 |
| 20260504220205 | 5 | 254 | 1.6 | 3.2 | 0.00 | 0.00 | 0.00 | 91 | 1012.8 |
| 20260504215704 | 5 | 254 | 1.6 | 3.2 | 0.00 | 0.00 | 0.00 | 91 | 1012.8 |
| 20260504215205 | 5 | 254 | 1.6 | 3.2 | 0.00 | 0.00 | 0.00 | 91 | 1012.8 |
| 20260504214705 | 5 | 254 | 0.0 | 1.6 | 0.00 | 0.00 | 0.00 | 91 | 1012.8 |
| 20260504213205 | 6 | 254 | 1.6 | 4.8 | 0.00 | 0.00 | 0.00 | 90 | 1012.8 |
| 20260504212705 | 6 | 253 | 1.6 | 4.8 | 0.00 | 0.00 | 0.00 | 90 | 1012.8 |
| 20260504212205 | 6 | 253 | 0.0 | 3.2 | 0.00 | 0.00 | 0.00 | 90 | 1012.8 |
| 20260504211705 | 6 | 253 | 1.6 | 4.8 | 0.00 | 0.00 | 0.00 | 90 | 1012.8 |
| 20260504211204 | 6 | 253 | 1.6 | 4.8 | 0.00 | 0.00 | 0.00 | 90 | 1012.9 |
| 20260504210705 | 6 | 254 | 1.6 | 4.8 | 0.00 | 0.00 | 0.00 | 90 | 1012.8 |
| 20260504210205 | 6 | 254 | 1.6 | 4.8 | 0.00 | 0.00 | 0.00 | 89 | 1012.8 |
| 20260504205705 | 6 | 254 | 0.0 | 3.2 | 0.00 | 0.00 | 0.00 | 89 | 1012.8 |
| 20260504205205 | 6 | 254 | 1.6 | 3.2 | 0.00 | 0.03 | 0.00 | 89 | 1012.8 |
| 20260504204705 | 6 | 252 | 1.6 | 4.8 | 0.00 | 0.03 | 0.00 | 88 | 1012.8 |
| 20260504204205 | 6 | 252 | 1.6 | 4.8 | 0.00 | 0.03 | 0.00 | 88 | 1012.8 |
| 20260504203206 | 6 | 252 | 0.0 | 4.8 | 0.00 | 0.05 | 0.00 | 88 | 1012.7 |
| 20260504202705 | 6 | 252 | 1.6 | 4.8 | 0.00 | 0.05 | 0.00 | 87 | 1012.8 |
| 20260504202205 | 7 | 252 | 1.6 | 4.8 | 0.00 | 0.10 | 0.00 | 87 | 1012.8 |
| 20260504201705 | 7 | 260 | 3.2 | 4.8 | 0.00 | 0.15 | 0.00 | 87 | 1012.8 |
| 20260504201205 | 7 | 260 | 3.2 | 4.8 | 0.00 | 0.18 | 0.00 | 87 | 1012.7 |
| 20260504200705 | 7 | 259 | 3.2 | 4.8 | 0.00 | 0.18 | 0.00 | 86 | 1012.8 |
| 20260504200205 | 7 | 262 | 3.2 | 4.8 | 0.00 | 0.20 | 0.00 | 86 | 1012.8 |
| 20260504195705 | 7 | 263 | 1.6 | 3.2 | 0.00 | 0.20 | 0.00 | 85 | 1012.7 |
| 20260504195204 | 7 | 265 | 1.6 | 4.8 | 0.00 | 0.20 | 0.00 | 85 | 1012.6 |
| 20260504194705 | 7 | 270 | 1.6 | 9.7 | 0.00 | 0.23 | 0.00 | 84 | 1012.7 |
| 20260504194205 | 7 | 269 | 3.2 | 4.8 | 0.00 | 0.23 | 0.00 | 84 | 1012.7 |
| 20260504193705 | 7 | 270 | 1.6 | 9.7 | 0.00 | 0.23 | 0.00 | 84 | 1012.6 |
| 20260504193205 | 8 | 264 | 3.2 | 4.8 | 0.00 | 0.23 | 0.00 | 83 | 1012.7 |
| 20260504192704 | 8 | 277 | 1.6 | 4.8 | 0.00 | 0.25 | 0.00 | 83 | 1012.7 |
| 20260504192205 | 8 | 279 | 1.6 | 4.8 | 0.00 | 0.25 | 0.00 | 83 | 1012.6 |
| 20260504190705 | 8 | 270 | 1.6 | 3.2 | 0.00 | 0.28 | 0.00 | 81 | 1012.4 |
| 20260504190205 | 8 | 277 | 1.6 | 4.8 | 0.00 | 0.30 | 0.00 | 80 | 1012.4 |
| 20260504185704 | 8 | 286 | 3.2 | 9.7 | 0.00 | 0.30 | 0.00 | 79 | 1012.4 |
| 20260504185205 | 9 | 273 | 3.2 | 11.3 | 0.00 | 0.30 | 0.00 | 79 | 1012.5 |
| 20260504184205 | 9 | 268 | 4.8 | 14.5 | 0.00 | 0.33 | 0.00 | 78 | 1012.5 |
| 20260504183705 | 9 | 289 | 3.2 | 4.8 | 0.00 | 0.33 | 0.00 | 78 | 1012.5 |
| 20260504182205 | 10 | 282 | 3.2 | 11.3 | 0.00 | 0.46 | 0.00 | 76 | 1012.3 |
| 20260504181705 | 10 | 262 | 3.2 | 11.3 | 0.00 | 0.48 | 0.00 | 75 | 1012.3 |
| 20260504181205 | 10 | 253 | 4.8 | 16.1 | 0.00 | 0.53 | 0.00 | 74 | 1012.4 |
| 20260504180705 | 10 | 251 | 4.8 | 12.9 | 0.00 | 0.61 | 0.00 | 74 | 1012.3 |
| 20260504180205 | 10 | 278 | 8.0 | 16.1 | 0.00 | 0.69 | 0.00 | 74 | 1012.3 |
| 20260504175704 | 11 | 257 | 1.6 | 8.0 | 0.00 | 0.76 | 0.00 | 74 | 1012.2 |
| 20260504175205 | 11 | 264 | 6.4 | 16.1 | 0.00 | 0.81 | 0.00 | 73 | 1012.2 |
| 20260504174705 | 11 | 288 | 3.2 | 4.8 | 0.00 | 0.86 | 0.00 | 73 | 1012.2 |
| 20260504174205 | 11 | 281 | 4.8 | 12.9 | 0.00 | 0.89 | 0.00 | 72 | 1012.1 |